sensor_id;sensor_type;location;lat;lon;timestamp;temperature;humidity
36450;DHT22;22475;51.390;7.180;2023-06-24T00:01:46;21.30;91.50
36450;DHT22;22475;51.390;7.180;2023-06-24T00:04:14;21.30;91.50
36450;DHT22;22475;51.390;7.180;2023-06-24T00:06:42;21.30;91.50
36450;DHT22;22475;51.390;7.180;2023-06-24T00:09:09;21.30;91.50
36450;DHT22;22475;51.390;7.180;2023-06-24T00:11:36;21.30;91.50
36450;DHT22;22475;51.390;7.180;2023-06-24T00:14:02;21.30;91.50
36450;DHT22;22475;51.390;7.180;2023-06-24T00:16:30;21.30;91.50
36450;DHT22;22475;51.390;7.180;2023-06-24T00:18:57;21.30;91.50
36450;DHT22;22475;51.390;7.180;2023-06-24T00:21:27;21.30;91.50
36450;DHT22;22475;51.390;7.180;2023-06-24T00:23:56;21.30;91.50
36450;DHT22;22475;51.390;7.180;2023-06-24T00:26:23;21.30;91.50
36450;DHT22;22475;51.390;7.180;2023-06-24T00:28:50;21.30;91.40
36450;DHT22;22475;51.390;7.180;2023-06-24T00:31:16;21.30;91.40
36450;DHT22;22475;51.390;7.180;2023-06-24T00:33:43;21.30;91.80
36450;DHT22;22475;51.390;7.180;2023-06-24T00:36:10;21.30;91.40
36450;DHT22;22475;51.390;7.180;2023-06-24T00:38:38;21.30;91.40
36450;DHT22;22475;51.390;7.180;2023-06-24T00:41:06;21.30;91.40
36450;DHT22;22475;51.390;7.180;2023-06-24T00:43:33;21.30;91.40
36450;DHT22;22475;51.390;7.180;2023-06-24T00:46:00;21.20;91.40
36450;DHT22;22475;51.390;7.180;2023-06-24T00:48:28;21.20;91.40
36450;DHT22;22475;51.390;7.180;2023-06-24T00:50:57;21.20;91.40
36450;DHT22;22475;51.390;7.180;2023-06-24T00:53:24;21.20;91.40
36450;DHT22;22475;51.390;7.180;2023-06-24T00:55:53;21.20;91.40
36450;DHT22;22475;51.390;7.180;2023-06-24T00:58:22;21.20;91.40
36450;DHT22;22475;51.390;7.180;2023-06-24T01:00:49;21.20;91.40
36450;DHT22;22475;51.390;7.180;2023-06-24T01:03:23;21.20;91.40
36450;DHT22;22475;51.390;7.180;2023-06-24T01:05:51;21.20;91.40
36450;DHT22;22475;51.390;7.180;2023-06-24T01:08:18;21.20;91.30
36450;DHT22;22475;51.390;7.180;2023-06-24T01:10:48;21.20;91.30
36450;DHT22;22475;51.390;7.180;2023-06-24T01:13:16;21.20;91.40
36450;DHT22;22475;51.390;7.180;2023-06-24T01:15:43;21.20;91.40
36450;DHT22;22475;51.390;7.180;2023-06-24T01:18:13;21.20;91.40
36450;DHT22;22475;51.390;7.180;2023-06-24T01:20:50;21.20;91.40
36450;DHT22;22475;51.390;7.180;2023-06-24T01:23:38;21.20;91.30
36450;DHT22;22475;51.390;7.180;2023-06-24T01:26:28;21.20;91.30
36450;DHT22;22475;51.390;7.180;2023-06-24T01:29:15;21.20;91.30
36450;DHT22;22475;51.390;7.180;2023-06-24T01:31:51;21.20;91.30
36450;DHT22;22475;51.390;7.180;2023-06-24T01:34:25;21.20;91.40
36450;DHT22;22475;51.390;7.180;2023-06-24T01:36:59;21.20;91.30
36450;DHT22;22475;51.390;7.180;2023-06-24T01:39:27;21.20;91.30
36450;DHT22;22475;51.390;7.180;2023-06-24T01:41:59;21.20;91.30
36450;DHT22;22475;51.390;7.180;2023-06-24T01:44:28;21.20;91.30
36450;DHT22;22475;51.390;7.180;2023-06-24T01:46:58;21.20;91.30
36450;DHT22;22475;51.390;7.180;2023-06-24T01:49:28;21.10;91.20
36450;DHT22;22475;51.390;7.180;2023-06-24T01:51:57;21.10;91.30
36450;DHT22;22475;51.390;7.180;2023-06-24T01:54:26;21.10;91.30
36450;DHT22;22475;51.390;7.180;2023-06-24T01:56:56;21.10;91.30
36450;DHT22;22475;51.390;7.180;2023-06-24T01:59:25;21.10;91.30
36450;DHT22;22475;51.390;7.180;2023-06-24T02:01:57;21.10;91.30
36450;DHT22;22475;51.390;7.180;2023-06-24T02:04:24;21.10;91.30
36450;DHT22;22475;51.390;7.180;2023-06-24T02:06:53;21.10;91.30
36450;DHT22;22475;51.390;7.180;2023-06-24T02:09:20;21.10;91.40
36450;DHT22;22475;51.390;7.180;2023-06-24T02:11:49;21.10;91.40
36450;DHT22;22475;51.390;7.180;2023-06-24T02:14:17;21.10;91.40
36450;DHT22;22475;51.390;7.180;2023-06-24T02:16:46;21.10;91.40
36450;DHT22;22475;51.390;7.180;2023-06-24T02:19:16;21.10;91.40
36450;DHT22;22475;51.390;7.180;2023-06-24T02:21:44;21.10;91.40
36450;DHT22;22475;51.390;7.180;2023-06-24T02:24:12;21.10;91.40
36450;DHT22;22475;51.390;7.180;2023-06-24T02:26:39;21.10;91.40
36450;DHT22;22475;51.390;7.180;2023-06-24T02:29:08;21.10;91.40
36450;DHT22;22475;51.390;7.180;2023-06-24T02:31:36;21.10;91.40
36450;DHT22;22475;51.390;7.180;2023-06-24T02:34:02;21.10;91.40
36450;DHT22;22475;51.390;7.180;2023-06-24T02:36:31;21.10;91.40
36450;DHT22;22475;51.390;7.180;2023-06-24T02:38:57;21.10;91.40
36450;DHT22;22475;51.390;7.180;2023-06-24T02:41:24;21.10;91.40
36450;DHT22;22475;51.390;7.180;2023-06-24T02:43:51;21.10;91.40
36450;DHT22;22475;51.390;7.180;2023-06-24T02:46:19;21.10;91.40
36450;DHT22;22475;51.390;7.180;2023-06-24T02:48:48;21.10;91.30
36450;DHT22;22475;51.390;7.180;2023-06-24T02:51:16;21.10;91.30
36450;DHT22;22475;51.390;7.180;2023-06-24T02:53:46;21.10;91.30
36450;DHT22;22475;51.390;7.180;2023-06-24T02:56:13;21.10;91.40
36450;DHT22;22475;51.390;7.180;2023-06-24T02:58:46;21.10;91.40
36450;DHT22;22475;51.390;7.180;2023-06-24T03:01:14;21.00;91.40
36450;DHT22;22475;51.390;7.180;2023-06-24T03:03:41;21.10;91.40
36450;DHT22;22475;51.390;7.180;2023-06-24T03:06:08;21.10;91.40
36450;DHT22;22475;51.390;7.180;2023-06-24T03:08:38;21.10;91.40
36450;DHT22;22475;51.390;7.180;2023-06-24T03:11:06;21.00;91.40
36450;DHT22;22475;51.390;7.180;2023-06-24T03:13:33;21.00;91.40
36450;DHT22;22475;51.390;7.180;2023-06-24T03:15:59;21.00;91.30
36450;DHT22;22475;51.390;7.180;2023-06-24T03:18:26;21.00;91.30
36450;DHT22;22475;51.390;7.180;2023-06-24T03:20:53;21.00;91.30
36450;DHT22;22475;51.390;7.180;2023-06-24T03:23:20;21.00;91.30
36450;DHT22;22475;51.390;7.180;2023-06-24T03:25:46;21.00;91.40
36450;DHT22;22475;51.390;7.180;2023-06-24T03:28:14;21.00;91.30
36450;DHT22;22475;51.390;7.180;2023-06-24T03:30:41;21.00;91.30
36450;DHT22;22475;51.390;7.180;2023-06-24T03:33:08;21.00;91.30
36450;DHT22;22475;51.390;7.180;2023-06-24T03:35:35;21.00;91.30
36450;DHT22;22475;51.390;7.180;2023-06-24T03:38:01;21.00;91.30
36450;DHT22;22475;51.390;7.180;2023-06-24T03:40:28;21.00;91.40
36450;DHT22;22475;51.390;7.180;2023-06-24T03:42:56;21.00;91.40
36450;DHT22;22475;51.390;7.180;2023-06-24T03:45:24;21.00;91.30
36450;DHT22;22475;51.390;7.180;2023-06-24T03:47:50;21.00;91.30
36450;DHT22;22475;51.390;7.180;2023-06-24T03:50:17;21.00;91.30
36450;DHT22;22475;51.390;7.180;2023-06-24T03:52:44;21.00;91.40
36450;DHT22;22475;51.390;7.180;2023-06-24T03:55:11;21.00;91.40
36450;DHT22;22475;51.390;7.180;2023-06-24T03:57:38;21.00;91.40
36450;DHT22;22475;51.390;7.180;2023-06-24T04:00:06;21.00;91.70
36450;DHT22;22475;51.390;7.180;2023-06-24T04:02:41;21.00;91.40
36450;DHT22;22475;51.390;7.180;2023-06-24T04:05:08;21.00;91.50
36450;DHT22;22475;51.390;7.180;2023-06-24T04:07:35;21.00;91.50
36450;DHT22;22475;51.390;7.180;2023-06-24T04:10:03;21.00;91.80
36450;DHT22;22475;51.390;7.180;2023-06-24T04:12:34;21.00;91.50
36450;DHT22;22475;51.390;7.180;2023-06-24T04:15:01;21.00;91.50
36450;DHT22;22475;51.390;7.180;2023-06-24T04:17:29;21.00;91.50
36450;DHT22;22475;51.390;7.180;2023-06-24T04:19:58;21.00;91.50
36450;DHT22;22475;51.390;7.180;2023-06-24T04:22:25;21.00;91.50
36450;DHT22;22475;51.390;7.180;2023-06-24T04:24:52;21.00;91.50
36450;DHT22;22475;51.390;7.180;2023-06-24T04:27:18;21.00;91.50
36450;DHT22;22475;51.390;7.180;2023-06-24T04:29:45;21.00;91.50
36450;DHT22;22475;51.390;7.180;2023-06-24T04:32:12;21.00;91.50
36450;DHT22;22475;51.390;7.180;2023-06-24T04:34:38;21.00;91.50
36450;DHT22;22475;51.390;7.180;2023-06-24T04:37:08;21.00;91.60
36450;DHT22;22475;51.390;7.180;2023-06-24T04:39:34;21.00;91.60
36450;DHT22;22475;51.390;7.180;2023-06-24T04:42:01;21.00;91.60
36450;DHT22;22475;51.390;7.180;2023-06-24T04:44:28;21.00;91.60
36450;DHT22;22475;51.390;7.180;2023-06-24T04:46:55;21.00;91.60
36450;DHT22;22475;51.390;7.180;2023-06-24T04:49:22;21.00;91.60
36450;DHT22;22475;51.390;7.180;2023-06-24T04:51:48;21.00;91.60
36450;DHT22;22475;51.390;7.180;2023-06-24T04:54:16;21.00;91.60
36450;DHT22;22475;51.390;7.180;2023-06-24T04:56:43;21.00;91.60
36450;DHT22;22475;51.390;7.180;2023-06-24T04:59:11;21.00;91.60
36450;DHT22;22475;51.390;7.180;2023-06-24T05:01:37;21.00;91.70
36450;DHT22;22475;51.390;7.180;2023-06-24T05:04:04;21.00;91.70
36450;DHT22;22475;51.390;7.180;2023-06-24T05:06:31;21.00;91.70
36450;DHT22;22475;51.390;7.180;2023-06-24T05:08:58;21.00;91.70
36450;DHT22;22475;51.390;7.180;2023-06-24T05:11:26;21.00;91.70
36450;DHT22;22475;51.390;7.180;2023-06-24T05:13:52;21.00;91.70
36450;DHT22;22475;51.390;7.180;2023-06-24T05:16:19;21.00;91.70
36450;DHT22;22475;51.390;7.180;2023-06-24T05:18:46;21.00;91.70
36450;DHT22;22475;51.390;7.180;2023-06-24T05:21:12;21.00;91.80
36450;DHT22;22475;51.390;7.180;2023-06-24T05:23:39;21.00;91.80
36450;DHT22;22475;51.390;7.180;2023-06-24T05:26:06;21.00;91.80
36450;DHT22;22475;51.390;7.180;2023-06-24T05:28:34;21.00;91.80
36450;DHT22;22475;51.390;7.180;2023-06-24T05:31:01;21.00;91.80
36450;DHT22;22475;51.390;7.180;2023-06-24T05:33:27;21.00;91.80
36450;DHT22;22475;51.390;7.180;2023-06-24T05:35:54;21.00;91.80
36450;DHT22;22475;51.390;7.180;2023-06-24T05:38:21;21.00;91.80
36450;DHT22;22475;51.390;7.180;2023-06-24T05:40:47;21.00;91.80
36450;DHT22;22475;51.390;7.180;2023-06-24T05:43:14;21.00;91.80
36450;DHT22;22475;51.390;7.180;2023-06-24T05:45:42;21.00;91.80
36450;DHT22;22475;51.390;7.180;2023-06-24T05:48:09;21.00;91.80
36450;DHT22;22475;51.390;7.180;2023-06-24T05:50:36;21.00;91.90
36450;DHT22;22475;51.390;7.180;2023-06-24T05:53:03;21.10;91.90
36450;DHT22;22475;51.390;7.180;2023-06-24T05:55:30;21.10;91.90
36450;DHT22;22475;51.390;7.180;2023-06-24T05:57:56;21.10;91.80
36450;DHT22;22475;51.390;7.180;2023-06-24T06:00:23;21.10;91.80
36450;DHT22;22475;51.390;7.180;2023-06-24T06:02:51;21.10;91.70
36450;DHT22;22475;51.390;7.180;2023-06-24T06:05:18;21.10;91.70
36450;DHT22;22475;51.390;7.180;2023-06-24T06:07:45;21.10;91.60
36450;DHT22;22475;51.390;7.180;2023-06-24T06:10:11;21.10;91.60
36450;DHT22;22475;51.390;7.180;2023-06-24T06:12:41;21.10;91.60
36450;DHT22;22475;51.390;7.180;2023-06-24T06:15:08;21.10;91.60
36450;DHT22;22475;51.390;7.180;2023-06-24T06:17:35;21.10;91.50
36450;DHT22;22475;51.390;7.180;2023-06-24T06:20:04;21.10;91.50
36450;DHT22;22475;51.390;7.180;2023-06-24T06:22:31;21.10;91.80
36450;DHT22;22475;51.390;7.180;2023-06-24T06:25:03;21.10;91.50
36450;DHT22;22475;51.390;7.180;2023-06-24T06:27:30;21.10;91.50
36450;DHT22;22475;51.390;7.180;2023-06-24T06:29:57;21.10;91.50
36450;DHT22;22475;51.390;7.180;2023-06-24T06:32:23;21.10;91.50
36450;DHT22;22475;51.390;7.180;2023-06-24T06:34:50;21.10;91.50
36450;DHT22;22475;51.390;7.180;2023-06-24T06:37:18;21.10;91.50
36450;DHT22;22475;51.390;7.180;2023-06-24T06:39:45;21.10;91.50
36450;DHT22;22475;51.390;7.180;2023-06-24T06:42:12;21.10;91.50
36450;DHT22;22475;51.390;7.180;2023-06-24T06:44:40;21.10;91.60
36450;DHT22;22475;51.390;7.180;2023-06-24T06:47:07;21.10;91.60
36450;DHT22;22475;51.390;7.180;2023-06-24T06:49:34;21.10;91.60
36450;DHT22;22475;51.390;7.180;2023-06-24T06:52:00;21.10;91.60
36450;DHT22;22475;51.390;7.180;2023-06-24T06:54:28;21.10;91.60
36450;DHT22;22475;51.390;7.180;2023-06-24T06:56:59;21.10;91.60
36450;DHT22;22475;51.390;7.180;2023-06-24T06:59:26;21.10;91.60
36450;DHT22;22475;51.390;7.180;2023-06-24T07:01:53;21.10;91.70
36450;DHT22;22475;51.390;7.180;2023-06-24T07:04:20;21.10;91.70
36450;DHT22;22475;51.390;7.180;2023-06-24T07:06:46;21.10;91.70
36450;DHT22;22475;51.390;7.180;2023-06-24T07:09:13;21.20;91.70
36450;DHT22;22475;51.390;7.180;2023-06-24T07:11:41;21.10;91.70
36450;DHT22;22475;51.390;7.180;2023-06-24T07:14:08;21.10;91.70
36450;DHT22;22475;51.390;7.180;2023-06-24T07:16:36;21.10;91.70
36450;DHT22;22475;51.390;7.180;2023-06-24T07:19:02;21.20;91.80
36450;DHT22;22475;51.390;7.180;2023-06-24T07:21:29;21.10;91.80
36450;DHT22;22475;51.390;7.180;2023-06-24T07:23:56;21.10;91.80
36450;DHT22;22475;51.390;7.180;2023-06-24T07:26:23;21.20;91.90
36450;DHT22;22475;51.390;7.180;2023-06-24T07:28:51;21.20;91.80
36450;DHT22;22475;51.390;7.180;2023-06-24T07:31:18;21.10;91.80
36450;DHT22;22475;51.390;7.180;2023-06-24T07:33:45;21.10;91.80
36450;DHT22;22475;51.390;7.180;2023-06-24T07:36:12;21.10;91.80
36450;DHT22;22475;51.390;7.180;2023-06-24T07:38:39;21.20;91.90
36450;DHT22;22475;51.390;7.180;2023-06-24T07:41:06;21.10;91.80
36450;DHT22;22475;51.390;7.180;2023-06-24T07:43:33;21.20;91.90
36450;DHT22;22475;51.390;7.180;2023-06-24T07:46:02;21.20;91.90
36450;DHT22;22475;51.390;7.180;2023-06-24T07:48:28;21.20;91.90
36450;DHT22;22475;51.390;7.180;2023-06-24T07:50:55;21.20;91.90
36450;DHT22;22475;51.390;7.180;2023-06-24T07:53:22;21.20;91.90
36450;DHT22;22475;51.390;7.180;2023-06-24T07:55:49;21.20;91.90
36450;DHT22;22475;51.390;7.180;2023-06-24T07:58:15;21.20;91.90
36450;DHT22;22475;51.390;7.180;2023-06-24T08:00:42;21.20;91.90
36450;DHT22;22475;51.390;7.180;2023-06-24T08:03:11;21.20;91.90
36450;DHT22;22475;51.390;7.180;2023-06-24T08:05:38;21.20;91.90
36450;DHT22;22475;51.390;7.180;2023-06-24T08:08:05;21.20;91.90
36450;DHT22;22475;51.390;7.180;2023-06-24T08:10:32;21.20;91.90
36450;DHT22;22475;51.390;7.180;2023-06-24T08:12:59;21.20;91.90
36450;DHT22;22475;51.390;7.180;2023-06-24T08:15:25;21.20;91.90
36450;DHT22;22475;51.390;7.180;2023-06-24T08:17:52;21.20;91.90
36450;DHT22;22475;51.390;7.180;2023-06-24T08:20:21;21.20;91.90
36450;DHT22;22475;51.390;7.180;2023-06-24T08:22:48;21.20;92.00
36450;DHT22;22475;51.390;7.180;2023-06-24T08:25:15;21.20;92.00
36450;DHT22;22475;51.390;7.180;2023-06-24T08:27:42;21.20;92.00
36450;DHT22;22475;51.390;7.180;2023-06-24T08:30:12;21.20;92.00
36450;DHT22;22475;51.390;7.180;2023-06-24T08:32:39;21.20;92.00
36450;DHT22;22475;51.390;7.180;2023-06-24T08:35:07;21.20;92.00
36450;DHT22;22475;51.390;7.180;2023-06-24T08:37:36;21.20;92.00
36450;DHT22;22475;51.390;7.180;2023-06-24T08:40:04;21.20;92.00
36450;DHT22;22475;51.390;7.180;2023-06-24T08:42:31;21.20;92.00
36450;DHT22;22475;51.390;7.180;2023-06-24T08:44:58;21.20;92.00
36450;DHT22;22475;51.390;7.180;2023-06-24T08:47:25;21.20;92.00
36450;DHT22;22475;51.390;7.180;2023-06-24T08:49:53;21.20;92.00
36450;DHT22;22475;51.390;7.180;2023-06-24T08:52:25;21.20;92.00
36450;DHT22;22475;51.390;7.180;2023-06-24T08:54:55;21.20;92.00
36450;DHT22;22475;51.390;7.180;2023-06-24T08:57:25;21.20;92.00
36450;DHT22;22475;51.390;7.180;2023-06-24T08:59:53;21.20;92.00
36450;DHT22;22475;51.390;7.180;2023-06-24T09:02:19;21.20;92.00
36450;DHT22;22475;51.390;7.180;2023-06-24T09:04:46;21.20;92.00
36450;DHT22;22475;51.390;7.180;2023-06-24T09:07:13;21.20;92.00
36450;DHT22;22475;51.390;7.180;2023-06-24T09:09:43;21.20;92.00
36450;DHT22;22475;51.390;7.180;2023-06-24T09:12:12;21.20;92.00
36450;DHT22;22475;51.390;7.180;2023-06-24T09:14:39;21.20;92.00
36450;DHT22;22475;51.390;7.180;2023-06-24T09:17:06;21.20;91.90
36450;DHT22;22475;51.390;7.180;2023-06-24T09:19:35;21.20;91.90
36450;DHT22;22475;51.390;7.180;2023-06-24T09:22:04;21.20;92.00
36450;DHT22;22475;51.390;7.180;2023-06-24T09:24:31;21.20;92.00
36450;DHT22;22475;51.390;7.180;2023-06-24T09:26:58;21.20;92.00
36450;DHT22;22475;51.390;7.180;2023-06-24T09:29:27;21.20;92.00
36450;DHT22;22475;51.390;7.180;2023-06-24T09:31:54;21.20;92.00
36450;DHT22;22475;51.390;7.180;2023-06-24T09:34:21;21.20;92.00
36450;DHT22;22475;51.390;7.180;2023-06-24T09:36:51;21.20;92.00
36450;DHT22;22475;51.390;7.180;2023-06-24T09:39:19;21.20;92.00
36450;DHT22;22475;51.390;7.180;2023-06-24T09:41:48;21.20;92.00
36450;DHT22;22475;51.390;7.180;2023-06-24T09:44:16;21.20;92.00
36450;DHT22;22475;51.390;7.180;2023-06-24T09:46:46;21.20;92.00
36450;DHT22;22475;51.390;7.180;2023-06-24T09:49:13;21.20;92.00
36450;DHT22;22475;51.390;7.180;2023-06-24T09:51:42;21.20;92.00
36450;DHT22;22475;51.390;7.180;2023-06-24T09:54:10;21.20;92.00
36450;DHT22;22475;51.390;7.180;2023-06-24T09:56:40;21.20;92.00
36450;DHT22;22475;51.390;7.180;2023-06-24T09:59:09;21.20;92.00
36450;DHT22;22475;51.390;7.180;2023-06-24T10:01:39;21.20;92.00
36450;DHT22;22475;51.390;7.180;2023-06-24T10:04:08;21.20;92.00
36450;DHT22;22475;51.390;7.180;2023-06-24T10:06:35;21.20;92.00
36450;DHT22;22475;51.390;7.180;2023-06-24T10:09:02;21.20;92.00
36450;DHT22;22475;51.390;7.180;2023-06-24T10:11:29;21.20;92.00
36450;DHT22;22475;51.390;7.180;2023-06-24T10:13:56;21.20;92.00
36450;DHT22;22475;51.390;7.180;2023-06-24T10:16:23;21.20;92.00
36450;DHT22;22475;51.390;7.180;2023-06-24T10:18:50;21.20;92.00
36450;DHT22;22475;51.390;7.180;2023-06-24T10:21:18;21.20;92.00
36450;DHT22;22475;51.390;7.180;2023-06-24T10:23:51;21.20;92.10
36450;DHT22;22475;51.390;7.180;2023-06-24T10:26:23;21.20;92.10
36450;DHT22;22475;51.390;7.180;2023-06-24T10:29:08;21.20;92.10
36450;DHT22;22475;51.390;7.180;2023-06-24T10:31:51;21.20;92.10
36450;DHT22;22475;51.390;7.180;2023-06-24T10:34:28;21.20;92.10
36450;DHT22;22475;51.390;7.180;2023-06-24T10:36:59;21.30;92.10
36450;DHT22;22475;51.390;7.180;2023-06-24T10:39:40;21.20;92.10
36450;DHT22;22475;51.390;7.180;2023-06-24T10:42:29;21.20;92.10
36450;DHT22;22475;51.390;7.180;2023-06-24T10:44:58;21.20;92.00
36450;DHT22;22475;51.390;7.180;2023-06-24T10:47:26;21.20;92.00
36450;DHT22;22475;51.390;7.180;2023-06-24T10:49:53;21.20;92.00
36450;DHT22;22475;51.390;7.180;2023-06-24T10:52:22;21.30;92.10
36450;DHT22;22475;51.390;7.180;2023-06-24T10:54:50;21.20;92.00
36450;DHT22;22475;51.390;7.180;2023-06-24T10:57:21;21.20;92.00
36450;DHT22;22475;51.390;7.180;2023-06-24T10:59:49;21.20;92.00
36450;DHT22;22475;51.390;7.180;2023-06-24T11:02:16;21.20;92.00
36450;DHT22;22475;51.390;7.180;2023-06-24T11:04:44;21.20;92.10
36450;DHT22;22475;51.390;7.180;2023-06-24T11:07:11;21.20;92.00
36450;DHT22;22475;51.390;7.180;2023-06-24T11:09:40;21.20;92.10
36450;DHT22;22475;51.390;7.180;2023-06-24T11:12:09;21.20;92.10
36450;DHT22;22475;51.390;7.180;2023-06-24T11:14:36;21.20;92.10
36450;DHT22;22475;51.390;7.180;2023-06-24T11:17:03;21.20;92.10
36450;DHT22;22475;51.390;7.180;2023-06-24T11:19:30;21.20;92.10
36450;DHT22;22475;51.390;7.180;2023-06-24T11:21:59;21.30;92.10
36450;DHT22;22475;51.390;7.180;2023-06-24T11:24:27;21.30;92.10
36450;DHT22;22475;51.390;7.180;2023-06-24T11:26:55;21.30;92.10
36450;DHT22;22475;51.390;7.180;2023-06-24T11:29:22;21.30;92.00
36450;DHT22;22475;51.390;7.180;2023-06-24T11:31:49;21.20;92.00
36450;DHT22;22475;51.390;7.180;2023-06-24T11:34:16;21.20;92.00
36450;DHT22;22475;51.390;7.180;2023-06-24T11:36:43;21.20;92.00
36450;DHT22;22475;51.390;7.180;2023-06-24T11:39:20;21.30;92.00
36450;DHT22;22475;51.390;7.180;2023-06-24T11:41:47;21.30;92.10
36450;DHT22;22475;51.390;7.180;2023-06-24T11:44:17;21.20;92.00
36450;DHT22;22475;51.390;7.180;2023-06-24T11:46:44;21.30;92.00
36450;DHT22;22475;51.390;7.180;2023-06-24T11:49:10;21.30;92.00
36450;DHT22;22475;51.390;7.180;2023-06-24T11:51:45;21.30;92.00
36450;DHT22;22475;51.390;7.180;2023-06-24T11:54:14;21.30;92.00
36450;DHT22;22475;51.390;7.180;2023-06-24T11:56:42;21.30;92.00
36450;DHT22;22475;51.390;7.180;2023-06-24T11:59:17;21.30;92.00
36450;DHT22;22475;51.390;7.180;2023-06-24T12:01:44;21.20;92.10
36450;DHT22;22475;51.390;7.180;2023-06-24T12:04:11;21.30;92.10
36450;DHT22;22475;51.390;7.180;2023-06-24T12:06:39;21.30;92.00
36450;DHT22;22475;51.390;7.180;2023-06-24T12:09:06;21.30;92.00
36450;DHT22;22475;51.390;7.180;2023-06-24T12:11:33;21.30;92.00
36450;DHT22;22475;51.390;7.180;2023-06-24T12:13:59;21.30;92.10
36450;DHT22;22475;51.390;7.180;2023-06-24T12:16:28;21.30;92.10
36450;DHT22;22475;51.390;7.180;2023-06-24T12:18:55;21.30;92.00
36450;DHT22;22475;51.390;7.180;2023-06-24T12:21:22;21.30;91.90
36450;DHT22;22475;51.390;7.180;2023-06-24T12:23:49;21.30;91.90
36450;DHT22;22475;51.390;7.180;2023-06-24T12:26:15;21.30;91.90
36450;DHT22;22475;51.390;7.180;2023-06-24T12:28:42;21.30;91.90
36450;DHT22;22475;51.390;7.180;2023-06-24T12:31:09;21.30;91.90
36450;DHT22;22475;51.390;7.180;2023-06-24T12:33:37;21.30;91.90
36450;DHT22;22475;51.390;7.180;2023-06-24T12:36:04;21.30;91.90
36450;DHT22;22475;51.390;7.180;2023-06-24T12:38:31;21.30;91.90
36450;DHT22;22475;51.390;7.180;2023-06-24T12:40:58;21.30;91.90
36450;DHT22;22475;51.390;7.180;2023-06-24T12:43:24;21.30;91.90
36450;DHT22;22475;51.390;7.180;2023-06-24T12:45:51;21.30;91.90
36450;DHT22;22475;51.390;7.180;2023-06-24T12:48:18;21.30;91.90
36450;DHT22;22475;51.390;7.180;2023-06-24T12:50:46;21.30;92.00
36450;DHT22;22475;51.390;7.180;2023-06-24T12:53:14;21.30;92.00
36450;DHT22;22475;51.390;7.180;2023-06-24T12:55:41;21.30;91.90
36450;DHT22;22475;51.390;7.180;2023-06-24T12:58:07;21.30;91.90
36450;DHT22;22475;51.390;7.180;2023-06-24T13:00:34;21.30;92.20
36450;DHT22;22475;51.390;7.180;2023-06-24T13:03:01;21.30;91.90
36450;DHT22;22475;51.390;7.180;2023-06-24T13:05:28;21.30;91.90
36450;DHT22;22475;51.390;7.180;2023-06-24T13:07:56;21.30;91.90
36450;DHT22;22475;51.390;7.180;2023-06-24T13:10:23;21.30;91.90
36450;DHT22;22475;51.390;7.180;2023-06-24T13:12:49;21.30;91.90
36450;DHT22;22475;51.390;7.180;2023-06-24T13:15:16;21.30;91.90
36450;DHT22;22475;51.390;7.180;2023-06-24T13:17:43;21.30;91.90
36450;DHT22;22475;51.390;7.180;2023-06-24T13:20:11;21.30;91.90
36450;DHT22;22475;51.390;7.180;2023-06-24T13:22:38;21.30;91.90
36450;DHT22;22475;51.390;7.180;2023-06-24T13:25:07;21.30;91.90
36450;DHT22;22475;51.390;7.180;2023-06-24T13:27:33;21.30;91.90
36450;DHT22;22475;51.390;7.180;2023-06-24T13:30:00;21.30;91.90
36450;DHT22;22475;51.390;7.180;2023-06-24T13:32:29;21.30;91.90
36450;DHT22;22475;51.390;7.180;2023-06-24T13:34:56;21.30;91.90
36450;DHT22;22475;51.390;7.180;2023-06-24T13:37:22;21.30;92.00
36450;DHT22;22475;51.390;7.180;2023-06-24T13:39:50;21.30;92.00
36450;DHT22;22475;51.390;7.180;2023-06-24T13:42:18;21.30;92.00
36450;DHT22;22475;51.390;7.180;2023-06-24T13:44:45;21.30;92.00
36450;DHT22;22475;51.390;7.180;2023-06-24T13:47:12;21.30;91.90
36450;DHT22;22475;51.390;7.180;2023-06-24T13:49:38;21.30;91.90
36450;DHT22;22475;51.390;7.180;2023-06-24T13:52:05;21.30;91.90
36450;DHT22;22475;51.390;7.180;2023-06-24T13:54:32;21.30;91.90
36450;DHT22;22475;51.390;7.180;2023-06-24T13:57:00;21.30;91.90
36450;DHT22;22475;51.390;7.180;2023-06-24T13:59:28;21.30;91.90
36450;DHT22;22475;51.390;7.180;2023-06-24T14:01:55;21.40;92.00
36450;DHT22;22475;51.390;7.180;2023-06-24T14:04:22;21.30;92.00
36450;DHT22;22475;51.390;7.180;2023-06-24T14:06:49;21.40;92.00
36450;DHT22;22475;51.390;7.180;2023-06-24T14:09:16;21.40;92.00
36450;DHT22;22475;51.390;7.180;2023-06-24T14:11:43;21.30;92.00
36450;DHT22;22475;51.390;7.180;2023-06-24T14:14:10;21.30;92.30
36450;DHT22;22475;51.390;7.180;2023-06-24T14:16:38;21.40;92.00
36450;DHT22;22475;51.390;7.180;2023-06-24T14:19:05;21.40;92.00
36450;DHT22;22475;51.390;7.180;2023-06-24T14:21:32;21.40;92.00
36450;DHT22;22475;51.390;7.180;2023-06-24T14:23:58;21.40;92.00
36450;DHT22;22475;51.390;7.180;2023-06-24T14:26:25;21.40;92.00
36450;DHT22;22475;51.390;7.180;2023-06-24T14:28:52;21.40;92.00
36450;DHT22;22475;51.390;7.180;2023-06-24T14:31:19;21.40;92.00
36450;DHT22;22475;51.390;7.180;2023-06-24T14:33:47;21.40;92.00
36450;DHT22;22475;51.390;7.180;2023-06-24T14:36:13;21.40;92.00
36450;DHT22;22475;51.390;7.180;2023-06-24T14:38:40;21.40;92.00
36450;DHT22;22475;51.390;7.180;2023-06-24T14:41:08;21.40;92.00
36450;DHT22;22475;51.390;7.180;2023-06-24T14:43:35;21.40;92.00
36450;DHT22;22475;51.390;7.180;2023-06-24T14:46:02;21.40;92.30
36450;DHT22;22475;51.390;7.180;2023-06-24T14:48:28;21.40;91.90
36450;DHT22;22475;51.390;7.180;2023-06-24T14:50:56;21.40;91.90
36450;DHT22;22475;51.390;7.180;2023-06-24T14:53:23;21.40;91.80
36450;DHT22;22475;51.390;7.180;2023-06-24T14:55:50;21.40;91.70
36450;DHT22;22475;51.390;7.180;2023-06-24T14:58:17;21.40;91.70
36450;DHT22;22475;51.390;7.180;2023-06-24T15:00:43;21.40;91.80
36450;DHT22;22475;51.390;7.180;2023-06-24T15:03:10;21.40;91.80
36450;DHT22;22475;51.390;7.180;2023-06-24T15:05:44;21.40;91.90
36450;DHT22;22475;51.390;7.180;2023-06-24T15:08:12;21.50;91.90
36450;DHT22;22475;51.390;7.180;2023-06-24T15:10:39;21.40;91.90
36450;DHT22;22475;51.390;7.180;2023-06-24T15:13:05;21.50;91.90
36450;DHT22;22475;51.390;7.180;2023-06-24T15:15:32;21.50;91.90
36450;DHT22;22475;51.390;7.180;2023-06-24T15:17:59;21.50;91.90
36450;DHT22;22475;51.390;7.180;2023-06-24T15:20:26;21.40;91.90
36450;DHT22;22475;51.390;7.180;2023-06-24T15:22:53;21.50;91.90
36450;DHT22;22475;51.390;7.180;2023-06-24T15:25:21;21.40;91.90
36450;DHT22;22475;51.390;7.180;2023-06-24T15:27:47;21.50;91.90
36450;DHT22;22475;51.390;7.180;2023-06-24T15:30:14;21.50;91.90
36450;DHT22;22475;51.390;7.180;2023-06-24T15:32:41;21.50;91.90
36450;DHT22;22475;51.390;7.180;2023-06-24T15:35:08;21.50;92.30